sensor_id;sensor_type;location;lat;lon;timestamp;pressure;altitude;pressure_sealevel;temperature;humidity
27643;BME280;15053;48.618;10.024;2023-08-20T00:02:01;94701.00;;;22.75;78.97
27643;BME280;15053;48.618;10.024;2023-08-20T00:04:28;94700.25;;;22.75;79.11
27643;BME280;15053;48.618;10.024;2023-08-20T00:06:57;94698.34;;;22.75;79.17
27643;BME280;15053;48.618;10.024;2023-08-20T00:09:24;94693.81;;;22.76;79.23
27643;BME280;15053;48.618;10.024;2023-08-20T00:11:53;94694.94;;;22.75;79.66
27643;BME280;15053;48.618;10.024;2023-08-20T00:14:19;94686.97;;;22.75;79.67
27643;BME280;15053;48.618;10.024;2023-08-20T00:16:46;94687.25;;;22.70;80.07
27643;BME280;15053;48.618;10.024;2023-08-20T00:19:13;94686.44;;;22.66;80.37
27643;BME280;15053;48.618;10.024;2023-08-20T00:21:43;94696.63;;;22.64;80.63
27643;BME280;15053;48.618;10.024;2023-08-20T00:24:11;94701.09;;;22.60;80.69
27643;BME280;15053;48.618;10.024;2023-08-20T00:26:38;94699.53;;;22.59;80.65
27643;BME280;15053;48.618;10.024;2023-08-20T00:29:06;94696.06;;;22.55;80.79
27643;BME280;15053;48.618;10.024;2023-08-20T00:31:34;94701.28;;;22.51;81.03
27643;BME280;15053;48.618;10.024;2023-08-20T00:34:01;94701.22;;;22.48;81.13
27643;BME280;15053;48.618;10.024;2023-08-20T00:36:33;94703.06;;;22.44;81.18
27643;BME280;15053;48.618;10.024;2023-08-20T00:39:00;94711.72;;;22.41;81.29
27643;BME280;15053;48.618;10.024;2023-08-20T00:41:26;94705.91;;;22.35;81.21
27643;BME280;15053;48.618;10.024;2023-08-20T00:43:53;94710.03;;;22.32;81.44
27643;BME280;15053;48.618;10.024;2023-08-20T00:46:19;94713.72;;;22.28;81.37
27643;BME280;15053;48.618;10.024;2023-08-20T00:48:46;94713.94;;;22.19;81.58
27643;BME280;15053;48.618;10.024;2023-08-20T00:51:12;94714.19;;;22.14;81.94
27643;BME280;15053;48.618;10.024;2023-08-20T00:53:39;94706.88;;;22.08;82.05
27643;BME280;15053;48.618;10.024;2023-08-20T00:56:06;94714.75;;;22.04;82.17
27643;BME280;15053;48.618;10.024;2023-08-20T00:58:33;94708.69;;;22.04;82.28
27643;BME280;15053;48.618;10.024;2023-08-20T01:01:00;94700.63;;;22.00;82.16
27643;BME280;15053;48.618;10.024;2023-08-20T01:03:26;94710.56;;;22.03;82.46
27643;BME280;15053;48.618;10.024;2023-08-20T01:06:01;94709.72;;;21.99;82.51
27643;BME280;15053;48.618;10.024;2023-08-20T01:08:39;94716.78;;;21.92;82.75
27643;BME280;15053;48.618;10.024;2023-08-20T01:11:18;94707.00;;;21.80;82.97
27643;BME280;15053;48.618;10.024;2023-08-20T01:13:47;94715.16;;;21.71;83.11
27643;BME280;15053;48.618;10.024;2023-08-20T01:16:14;94721.81;;;21.65;83.39
27643;BME280;15053;48.618;10.024;2023-08-20T01:18:40;94716.03;;;21.60;83.81
27643;BME280;15053;48.618;10.024;2023-08-20T01:21:42;94722.88;;;21.61;84.01
27643;BME280;15053;48.618;10.024;2023-08-20T01:29:11;94719.09;;;21.62;85.09
27643;BME280;15053;48.618;10.024;2023-08-20T01:31:39;94711.91;;;21.62;85.29
27643;BME280;15053;48.618;10.024;2023-08-20T01:34:07;94711.22;;;21.65;85.47
27643;BME280;15053;48.618;10.024;2023-08-20T01:36:33;94710.53;;;21.68;85.62
27643;BME280;15053;48.618;10.024;2023-08-20T01:39:01;94723.03;;;21.68;85.83
27643;BME280;15053;48.618;10.024;2023-08-20T01:41:28;94721.75;;;21.62;86.07
27643;BME280;15053;48.618;10.024;2023-08-20T01:43:55;94724.25;;;21.55;86.37
27643;BME280;15053;48.618;10.024;2023-08-20T01:46:21;94734.06;;;21.54;86.60
27643;BME280;15053;48.618;10.024;2023-08-20T01:48:50;94726.97;;;21.58;86.88
27643;BME280;15053;48.618;10.024;2023-08-20T01:51:16;94726.28;;;21.61;86.92
27643;BME280;15053;48.618;10.024;2023-08-20T01:53:43;94726.34;;;21.65;86.89
27643;BME280;15053;48.618;10.024;2023-08-20T01:56:13;94725.66;;;21.68;86.94
27643;BME280;15053;48.618;10.024;2023-08-20T01:58:40;94719.59;;;21.67;86.68
27643;BME280;15053;48.618;10.024;2023-08-20T10:02:56;94853.19;;;30.57;45.32
27643;BME280;15053;48.618;10.024;2023-08-20T10:05:23;94851.59;;;30.63;45.69
27643;BME280;15053;48.618;10.024;2023-08-20T10:07:50;94860.69;;;30.76;44.76
27643;BME280;15053;48.618;10.024;2023-08-20T10:10:17;94861.78;;;30.82;43.51
27643;BME280;15053;48.618;10.024;2023-08-20T10:12:45;94854.72;;;30.99;43.75
27643;BME280;15053;48.618;10.024;2023-08-20T10:15:14;94855.56;;;31.22;43.90
27643;BME280;15053;48.618;10.024;2023-08-20T10:17:43;94852.06;;;31.56;43.18
27643;BME280;15053;48.618;10.024;2023-08-20T10:20:13;94858.53;;;31.62;41.87
27643;BME280;15053;48.618;10.024;2023-08-20T10:22:42;94856.69;;;31.55;41.28
27643;BME280;15053;48.618;10.024;2023-08-20T10:25:11;94855.63;;;31.49;41.34
27643;BME280;15053;48.618;10.024;2023-08-20T10:27:40;94854.88;;;31.45;41.34
27643;BME280;15053;48.618;10.024;2023-08-20T10:30:17;94856.09;;;31.40;42.00
27643;BME280;15053;48.618;10.024;2023-08-20T10:32:56;94841.91;;;31.36;42.13
27643;BME280;15053;48.618;10.024;2023-08-20T10:35:25;94857.59;;;31.45;42.27
27643;BME280;15053;48.618;10.024;2023-08-20T10:38:12;94854.03;;;31.78;42.39
27643;BME280;15053;48.618;10.024;2023-08-20T10:40:58;94851.00;;;32.03;41.98
27643;BME280;15053;48.618;10.024;2023-08-20T10:46:13;94852.75;;;32.36;41.38
27643;BME280;15053;48.618;10.024;2023-08-20T10:48:40;94849.81;;;32.50;40.94
27643;BME280;15053;48.618;10.024;2023-08-20T10:51:11;94842.66;;;32.63;37.18
27643;BME280;15053;48.618;10.024;2023-08-20T10:53:40;94842.63;;;32.67;36.40
27643;BME280;15053;48.618;10.024;2023-08-20T10:56:12;94843.75;;;32.89;36.10
27643;BME280;15053;48.618;10.024;2023-08-20T10:58:46;94850.41;;;33.04;35.53
27643;BME280;15053;48.618;10.024;2023-08-20T11:01:17;94852.00;;;33.02;35.45
27643;BME280;15053;48.618;10.024;2023-08-20T11:03:45;94840.50;;;32.98;35.74
27643;BME280;15053;48.618;10.024;2023-08-20T11:06:12;94840.97;;;32.93;34.98
27643;BME280;15053;48.618;10.024;2023-08-20T11:08:39;94840.34;;;33.05;35.22
27643;BME280;15053;48.618;10.024;2023-08-20T11:11:08;94841.41;;;33.11;34.59
27643;BME280;15053;48.618;10.024;2023-08-20T11:13:35;94834.41;;;33.13;35.12
27643;BME280;15053;48.618;10.024;2023-08-20T11:16:02;94831.97;;;33.19;36.10
27643;BME280;15053;48.618;10.024;2023-08-20T11:18:31;94836.88;;;33.24;36.33
27643;BME280;15053;48.618;10.024;2023-08-20T11:20:59;94836.88;;;33.24;36.97
27643;BME280;15053;48.618;10.024;2023-08-20T11:23:25;94831.47;;;33.44;38.54
27643;BME280;15053;48.618;10.024;2023-08-20T11:25:52;94831.78;;;33.65;38.54
27643;BME280;15053;48.618;10.024;2023-08-20T11:28:19;94836.53;;;33.77;38.13
27643;BME280;15053;48.618;10.024;2023-08-20T11:30:46;94835.00;;;33.93;38.59
27643;BME280;15053;48.618;10.024;2023-08-20T11:33:13;94829.22;;;34.10;38.40
27643;BME280;15053;48.618;10.024;2023-08-20T11:35:41;94824.56;;;34.27;38.17
27643;BME280;15053;48.618;10.024;2023-08-20T11:38:09;94826.56;;;34.39;37.58
27643;BME280;15053;48.618;10.024;2023-08-20T11:40:36;94830.25;;;34.45;35.54
27643;BME280;15053;48.618;10.024;2023-08-20T11:43:04;94825.00;;;34.54;34.08
27643;BME280;15053;48.618;10.024;2023-08-20T11:45:30;94828.03;;;34.56;33.22
27643;BME280;15053;48.618;10.024;2023-08-20T11:47:58;94825.78;;;34.55;33.53
27643;BME280;15053;48.618;10.024;2023-08-20T11:50:26;94826.19;;;34.53;33.41
27643;BME280;15053;48.618;10.024;2023-08-20T11:52:53;94825.22;;;34.47;33.02
27643;BME280;15053;48.618;10.024;2023-08-20T11:55:24;94818.69;;;34.45;33.17
27643;BME280;15053;48.618;10.024;2023-08-20T11:57:51;94817.09;;;34.47;33.08
27643;BME280;15053;48.618;10.024;2023-08-20T12:00:30;94809.59;;;34.67;33.92
27643;BME280;15053;48.618;10.024;2023-08-20T12:02:58;94815.63;;;34.87;32.69
27643;BME280;15053;48.618;10.024;2023-08-20T12:05:28;94818.91;;;34.95;32.39
27643;BME280;15053;48.618;10.024;2023-08-20T12:07:58;94809.22;;;34.81;31.72
27643;BME280;15053;48.618;10.024;2023-08-20T12:10:29;94805.88;;;34.77;31.46
27643;BME280;15053;48.618;10.024;2023-08-20T12:12:57;94812.72;;;34.94;31.88
27643;BME280;15053;48.618;10.024;2023-08-20T12:15:24;94812.63;;;34.98;31.44
27643;BME280;15053;48.618;10.024;2023-08-20T12:18:04;94813.47;;;34.95;31.15
27643;BME280;15053;48.618;10.024;2023-08-20T12:20:33;94808.97;;;35.05;30.43
27643;BME280;15053;48.618;10.024;2023-08-20T13:02:31;94774.44;;;36.78;30.70
27643;BME280;15053;48.618;10.024;2023-08-20T13:04:58;94774.78;;;36.89;29.99
27643;BME280;15053;48.618;10.024;2023-08-20T13:07:25;94777.19;;;36.87;29.98
27643;BME280;15053;48.618;10.024;2023-08-20T13:09:52;94780.34;;;36.86;30.27
27643;BME280;15053;48.618;10.024;2023-08-20T13:12:19;94779.91;;;36.87;30.07
27643;BME280;15053;48.618;10.024;2023-08-20T13:14:53;94777.19;;;36.87;30.42
27643;BME280;15053;48.618;10.024;2023-08-20T13:17:20;94776.09;;;36.85;28.79
27643;BME280;15053;48.618;10.024;2023-08-20T13:19:46;94770.59;;;36.76;30.03
27643;BME280;15053;48.618;10.024;2023-08-20T13:22:13;94776.75;;;36.67;29.72
27643;BME280;15053;48.618;10.024;2023-08-20T13:24:40;94768.22;;;36.78;29.56
27643;BME280;15053;48.618;10.024;2023-08-20T13:27:07;94777.19;;;36.65;29.89
27643;BME280;15053;48.618;10.024;2023-08-20T13:29:33;94758.19;;;36.65;29.80
27643;BME280;15053;48.618;10.024;2023-08-20T13:32:00;94766.13;;;36.82;29.37
27643;BME280;15053;48.618;10.024;2023-08-20T13:34:27;94772.31;;;36.82;29.62
27643;BME280;15053;48.618;10.024;2023-08-20T13:36:53;94769.00;;;36.78;29.93
27643;BME280;15053;48.618;10.024;2023-08-20T13:39:20;94766.50;;;36.93;29.93
27643;BME280;15053;48.618;10.024;2023-08-20T13:41:49;94769.50;;;37.07;29.50
27643;BME280;15053;48.618;10.024;2023-08-20T13:44:19;94755.19;;;37.16;29.51
27643;BME280;15053;48.618;10.024;2023-08-20T13:46:46;94757.38;;;37.39;29.47
27643;BME280;15053;48.618;10.024;2023-08-20T13:49:12;94761.88;;;37.55;30.38
27643;BME280;15053;48.618;10.024;2023-08-20T13:51:39;94759.16;;;37.64;30.53
27643;BME280;15053;48.618;10.024;2023-08-20T13:54:05;94759.66;;;37.71;29.60
27643;BME280;15053;48.618;10.024;2023-08-20T13:56:32;94756.94;;;37.71;29.53
27643;BME280;15053;48.618;10.024;2023-08-20T13:58:58;94744.75;;;37.85;28.65
27643;BME280;15053;48.618;10.024;2023-08-20T14:01:25;94750.53;;;37.96;29.93
27643;BME280;15053;48.618;10.024;2023-08-20T14:03:53;94744.78;;;38.03;29.92
27643;BME280;15053;48.618;10.024;2023-08-20T14:06:20;94747.22;;;38.01;28.57
27643;BME280;15053;48.618;10.024;2023-08-20T14:08:47;94750.22;;;38.03;28.45
27643;BME280;15053;48.618;10.024;2023-08-20T14:11:14;94755.69;;;38.21;29.29
27643;BME280;15053;48.618;10.024;2023-08-20T14:13:41;94749.38;;;38.43;27.91
27643;BME280;15053;48.618;10.024;2023-08-20T14:16:09;94747.53;;;38.30;27.88
27643;BME280;15053;48.618;10.024;2023-08-20T14:18:35;94743.88;;;38.24;27.82
27643;BME280;15053;48.618;10.024;2023-08-20T14:21:02;94749.03;;;38.22;27.69
27643;BME280;15053;48.618;10.024;2023-08-20T14:23:29;94738.72;;;37.99;27.94
27643;BME280;15053;48.618;10.024;2023-08-20T14:25:56;94742.03;;;37.94;27.45
27643;BME280;15053;48.618;10.024;2023-08-20T14:28:22;94747.00;;;37.87;26.83
27643;BME280;15053;48.618;10.024;2023-08-20T14:30:49;94748.44;;;38.09;26.74
27643;BME280;15053;48.618;10.024;2023-08-20T14:33:18;94741.50;;;38.26;27.37
27643;BME280;15053;48.618;10.024;2023-08-20T14:35:44;94738.63;;;38.39;27.53
27643;BME280;15053;48.618;10.024;2023-08-20T14:38:11;94738.59;;;38.57;28.12
27643;BME280;15053;48.618;10.024;2023-08-20T14:40:39;94731.03;;;38.52;27.94
27643;BME280;15053;48.618;10.024;2023-08-20T14:43:07;94741.50;;;38.54;27.69
27643;BME280;15053;48.618;10.024;2023-08-20T14:45:34;94733.03;;;38.43;27.13
27643;BME280;15053;48.618;10.024;2023-08-20T14:48:01;94733.47;;;38.41;28.62
27643;BME280;15053;48.618;10.024;2023-08-20T14:50:29;94722.44;;;38.54;28.46
27643;BME280;15053;48.618;10.024;2023-08-20T14:52:55;94723.16;;;38.63;28.15
27643;BME280;15053;48.618;10.024;2023-08-20T14:55:22;94737.09;;;38.38;27.47
27643;BME280;15053;48.618;10.024;2023-08-20T14:57:49;94731.94;;;38.13;28.62
27643;BME280;15053;48.618;10.024;2023-08-20T15:00:18;94729.69;;;38.20;28.85
27643;BME280;15053;48.618;10.024;2023-08-20T15:02:45;94730.59;;;38.26;28.36
27643;BME280;15053;48.618;10.024;2023-08-20T15:05:12;94733.66;;;38.38;27.30
27643;BME280;15053;48.618;10.024;2023-08-20T15:07:39;94720.47;;;38.45;27.04
27643;BME280;15053;48.618;10.024;2023-08-20T15:10:06;94725.63;;;38.43;26.90
27643;BME280;15053;48.618;10.024;2023-08-20T15:12:33;94724.06;;;38.06;26.76
27643;BME280;15053;48.618;10.024;2023-08-20T15:15:02;94717.88;;;37.96;26.74
27643;BME280;15053;48.618;10.024;2023-08-20T15:17:30;94718.78;;;38.11;27.69
27643;BME280;15053;48.618;10.024;2023-08-20T15:19:58;94713.66;;;38.04;28.02
27643;BME280;15053;48.618;10.024;2023-08-20T15:22:25;94708.66;;;38.21;27.92
27643;BME280;15053;48.618;10.024;2023-08-20T15:24:52;94710.78;;;38.35;28.29
27643;BME280;15053;48.618;10.024;2023-08-20T15:27:18;94710.16;;;38.49;27.46
27643;BME280;15053;48.618;10.024;2023-08-20T15:29:45;94709.41;;;38.67;28.80
27643;BME280;15053;48.618;10.024;2023-08-20T15:32:11;94715.44;;;38.89;28.83
27643;BME280;15053;48.618;10.024;2023-08-20T15:34:38;94715.41;;;38.98;29.25
27643;BME280;15053;48.618;10.024;2023-08-20T15:37:05;94720.31;;;39.18;28.73
27643;BME280;15053;48.618;10.024;2023-08-20T15:39:32;94717.56;;;39.36;28.62
27643;BME280;15053;48.618;10.024;2023-08-20T15:42:00;94718.63;;;39.38;27.93
27643;BME280;15053;48.618;10.024;2023-08-20T15:44:28;94720.44;;;39.32;29.18
27643;BME280;15053;48.618;10.024;2023-08-20T15:46:54;94718.00;;;39.34;28.51
27643;BME280;15053;48.618;10.024;2023-08-20T15:49:21;94722.09;;;39.39;27.52
27643;BME280;15053;48.618;10.024;2023-08-20T15:51:47;94716.25;;;39.13;28.65
27643;BME280;15053;48.618;10.024;2023-08-20T15:54:16;94722.59;;;39.19;28.67
27643;BME280;15053;48.618;10.024;2023-08-20T15:56:42;94715.28;;;39.34;27.93
27643;BME280;15053;48.618;10.024;2023-08-20T15:59:09;94720.66;;;39.20;27.01
27643;BME280;15053;48.618;10.024;2023-08-20T16:01:35;94722.50;;;39.05;27.05
27643;BME280;15053;48.618;10.024;2023-08-20T16:04:03;94717.03;;;39.05;26.99
27643;BME280;15053;48.618;10.024;2023-08-20T16:06:30;94721.72;;;39.04;27.56
27643;BME280;15053;48.618;10.024;2023-08-20T16:08:56;94712.34;;;39.05;26.70
27643;BME280;15053;48.618;10.024;2023-08-20T16:11:23;94716.59;;;39.06;27.09
27643;BME280;15053;48.618;10.024;2023-08-20T16:13:49;94708.72;;;38.99;29.36
27643;BME280;15053;48.618;10.024;2023-08-20T16:16:16;94718.00;;;38.74;30.33
27643;BME280;15053;48.618;10.024;2023-08-20T16:18:42;94708.97;;;38.59;30.70
27643;BME280;15053;48.618;10.024;2023-08-20T16:21:09;94711.84;;;38.47;31.54
27643;BME280;15053;48.618;10.024;2023-08-20T16:23:36;94714.59;;;38.38;32.78
27643;BME280;15053;48.618;10.024;2023-08-20T16:26:02;94718.03;;;38.20;32.88
27643;BME280;15053;48.618;10.024;2023-08-20T16:28:32;94717.56;;;38.03;33.42
27643;BME280;15053;48.618;10.024;2023-08-20T16:30:58;94712.78;;;37.67;34.05
27643;BME280;15053;48.618;10.024;2023-08-20T16:33:26;94713.16;;;37.39;34.77
27643;BME280;15053;48.618;10.024;2023-08-20T16:35:53;94711.66;;;37.07;35.03
27643;BME280;15053;48.618;10.024;2023-08-20T16:38:20;94720.59;;;36.86;35.51
27643;BME280;15053;48.618;10.024;2023-08-20T16:40:46;94723.72;;;36.84;36.11
27643;BME280;15053;48.618;10.024;2023-08-20T16:43:13;94721.88;;;36.72;36.15
27643;BME280;15053;48.618;10.024;2023-08-20T16:45:41;94728.75;;;36.64;35.69
27643;BME280;15053;48.618;10.024;2023-08-20T16:48:07;94729.34;;;36.46;35.88
27643;BME280;15053;48.618;10.024;2023-08-20T16:50:34;94735.28;;;36.32;35.51
27643;BME280;15053;48.618;10.024;2023-08-20T16:53:00;94727.28;;;36.29;36.14
27643;BME280;15053;48.618;10.024;2023-08-20T16:55:29;94724.69;;;36.13;35.98
27643;BME280;15053;48.618;10.024;2023-08-20T16:57:56;94726.94;;;35.92;36.75
27643;BME280;15053;48.618;10.024;2023-08-20T17:00:22;94739.28;;;35.93;37.03
27643;BME280;15053;48.618;10.024;2023-08-20T17:02:50;94736.34;;;35.88;36.47
27643;BME280;15053;48.618;10.024;2023-08-20T17:05:17;94737.69;;;35.83;36.52
27643;BME280;15053;48.618;10.024;2023-08-20T17:07:43;94741.72;;;35.79;36.79
27643;BME280;15053;48.618;10.024;2023-08-20T17:10:10;94736.94;;;35.70;36.78
27643;BME280;15053;48.618;10.024;2023-08-20T17:12:37;94731.88;;;35.60;37.32
27643;BME280;15053;48.618;10.024;2023-08-20T17:15:05;94741.28;;;35.55;37.67
27643;BME280;15053;48.618;10.024;2023-08-20T17:17:32;94745.38;;;35.47;37.88
27643;BME280;15053;48.618;10.024;2023-08-20T17:19:58;94744.50;;;35.00;37.89
27643;BME280;15053;48.618;10.024;2023-08-20T17:22:25;94734.88;;;34.41;38.95
27643;BME280;15053;48.618;10.024;2023-08-20T17:24:52;94736.72;;;33.99;39.49
27643;BME280;15053;48.618;10.024;2023-08-20T17:27:18;94744.28;;;33.59;40.60
27643;BME280;15053;48.618;10.024;2023-08-20T17:29:46;94744.47;;;33.33;41.82
27643;BME280;15053;48.618;10.024;2023-08-20T17:32:13;94740.84;;;33.03;42.47
27643;BME280;15053;48.618;10.024;2023-08-20T17:34:40;94740.63;;;32.78;43.12
27643;BME280;15053;48.618;10.024;2023-08-20T17:37:07;94746.84;;;32.55;43.12
27643;BME280;15053;48.618;10.024;2023-08-20T17:39:33;94745.28;;;32.35;43.74
27643;BME280;15053;48.618;10.024;2023-08-20T17:42:00;94751.91;;;32.10;45.02
27643;BME280;15053;48.618;10.024;2023-08-20T17:44:26;94749.53;;;31.89;45.10
27643;BME280;15053;48.618;10.024;2023-08-20T17:46:53;94758.72;;;31.69;45.90
27643;BME280;15053;48.618;10.024;2023-08-20T17:49:19;94754.03;;;31.49;46.60
27643;BME280;15053;48.618;10.024;2023-08-20T17:51:46;94752.66;;;31.34;47.46
27643;BME280;15053;48.618;10.024;2023-08-20T17:54:13;94749.44;;;31.20;47.65
27643;BME280;15053;48.618;10.024;2023-08-20T17:56:40;94746.59;;;31.04;48.02
27643;BME280;15053;48.618;10.024;2023-08-20T17:59:07;94756.00;;;30.85;48.46
27643;BME280;15053;48.618;10.024;2023-08-20T18:01:34;94751.97;;;30.70;49.05
27643;BME280;15053;48.618;10.024;2023-08-20T18:04:01;94752.88;;;30.60;49.40
27643;BME280;15053;48.618;10.024;2023-08-20T18:06:28;94760.66;;;30.51;50.13
27643;BME280;15053;48.618;10.024;2023-08-20T18:08:54;94760.38;;;30.42;50.14
27643;BME280;15053;48.618;10.024;2023-08-20T18:11:21;94762.75;;;30.32;50.58
27643;BME280;15053;48.618;10.024;2023-08-20T18:13:48;94764.78;;;30.21;50.48
27643;BME280;15053;48.618;10.024;2023-08-20T18:16:14;94767.53;;;30.14;51.02
27643;BME280;15053;48.618;10.024;2023-08-20T18:18:41;94764.94;;;30.04;50.97
27643;BME280;15053;48.618;10.024;2023-08-20T18:21:07;94768.88;;;29.92;52.29
27643;BME280;15053;48.618;10.024;2023-08-20T18:23:34;94763.97;;;29.83;51.97
27643;BME280;15053;48.618;10.024;2023-08-20T18:26:01;94770.16;;;29.77;52.17
27643;BME280;15053;48.618;10.024;2023-08-20T18:28:28;94775.59;;;29.66;52.39
27643;BME280;15053;48.618;10.024;2023-08-20T18:30:59;94780.31;;;29.52;52.96
27643;BME280;15053;48.618;10.024;2023-08-20T18:33:26;94786.53;;;29.42;53.64
27643;BME280;15053;48.618;10.024;2023-08-20T18:36:00;94783.88;;;29.31;53.90
27643;BME280;15053;48.618;10.024;2023-08-20T18:41:03;94793.53;;;29.21;54.60
27643;BME280;15053;48.618;10.024;2023-08-20T18:43:30;94796.56;;;29.20;55.49
27643;BME280;15053;48.618;10.024;2023-08-20T18:45:57;94782.00;;;29.17;55.75
27643;BME280;15053;48.618;10.024;2023-08-20T18:48:23;94796.97;;;29.18;56.08
27643;BME280;15053;48.618;10.024;2023-08-20T18:50:50;94797.38;;;29.13;56.24
27643;BME280;15053;48.618;10.024;2023-08-20T18:53:16;94798.94;;;29.11;56.62
27643;BME280;15053;48.618;10.024;2023-08-20T18:55:43;94798.94;;;29.04;56.88
27643;BME280;15053;48.618;10.024;2023-08-20T18:58:09;94808.97;;;28.96;57.07
27643;BME280;15053;48.618;10.024;2023-08-20T19:00:37;94811.69;;;28.89;57.92
27643;BME280;15053;48.618;10.024;2023-08-20T19:03:03;94817.47;;;28.84;58.35
27643;BME280;15053;48.618;10.024;2023-08-20T19:05:31;94821.28;;;28.76;58.84
27643;BME280;15053;48.618;10.024;2023-08-20T19:07:58;94832.81;;;28.66;59.35
27643;BME280;15053;48.618;10.024;2023-08-20T19:10:25;94825.56;;;28.56;60.06
27643;BME280;15053;48.618;10.024;2023-08-20T19:12:51;94832.44;;;28.46;60.25
27643;BME280;15053;48.618;10.024;2023-08-20T19:15:18;94829.03;;;28.39;61.04
27643;BME280;15053;48.618;10.024;2023-08-20T19:17:44;94832.88;;;28.34;60.90
27643;BME280;15053;48.618;10.024;2023-08-20T19:20:11;94835.56;;;28.31;61.53
27643;BME280;15053;48.618;10.024;2023-08-20T19:22:40;94835.19;;;28.29;61.99
27643;BME280;15053;48.618;10.024;2023-08-20T19:25:07;94836.31;;;28.28;62.21
27643;BME280;15053;48.618;10.024;2023-08-20T19:27:35;94843.59;;;28.27;62.08
27643;BME280;15053;48.618;10.024;2023-08-20T19:30:02;94834.41;;;28.28;62.00
27643;BME280;15053;48.618;10.024;2023-08-20T19:32:32;94835.16;;;28.22;62.59
27643;BME280;15053;48.618;10.024;2023-08-20T19:35:00;94840.53;;;28.15;62.82
27643;BME280;15053;48.618;10.024;2023-08-20T19:37:26;94840.94;;;28.09;63.28
27643;BME280;15053;48.618;10.024;2023-08-20T19:39:53;94840.16;;;28.05;63.64
27643;BME280;15053;48.618;10.024;2023-08-20T19:42:19;94843.19;;;28.00;63.37
27643;BME280;15053;48.618;10.024;2023-08-20T19:44:46;94833.63;;;27.99;63.74
27643;BME280;15053;48.618;10.024;2023-08-20T19:47:12;94835.16;;;28.00;63.62
27643;BME280;15053;48.618;10.024;2023-08-20T19:49:39;94837.47;;;27.98;63.59
27643;BME280;15053;48.618;10.024;2023-08-20T19:52:05;94834.78;;;27.98;63.56
27643;BME280;15053;48.618;10.024;2023-08-20T19:54:32;94839.72;;;27.96;63.54
27643;BME280;15053;48.618;10.024;2023-08-20T19:56:59;94829.03;;;28.00;63.71
27643;BME280;15053;48.618;10.024;2023-08-20T19:59:25;94826.72;;;28.02;63.85
27643;BME280;15053;48.618;10.024;2023-08-20T20:01:52;94835.19;;;28.04;63.31
27643;BME280;15053;48.618;10.024;2023-08-20T20:04:19;94833.66;;;28.06;63.33
27643;BME280;15053;48.618;10.024;2023-08-20T20:06:45;94839.78;;;28.07;62.45
27643;BME280;15053;48.618;10.024;2023-08-20T20:09:12;94838.25;;;28.06;62.52
27643;BME280;15053;48.618;10.024;2023-08-20T20:11:38;94840.56;;;28.04;62.12
27643;BME280;15053;48.618;10.024;2023-08-20T20:14:05;94838.97;;;27.99;61.95
27643;BME280;15053;48.618;10.024;2023-08-20T20:16:32;94840.16;;;27.98;62.20
27643;BME280;15053;48.618;10.024;2023-08-20T20:18:58;94843.59;;;27.95;62.24
27643;BME280;15053;48.618;10.024;2023-08-20T20:21:25;94848.94;;;27.92;62.25
27643;BME280;15053;48.618;10.024;2023-08-20T20:23:51;94845.09;;;27.89;62.08
27643;BME280;15053;48.618;10.024;2023-08-20T20:26:18;94845.88;;;27.90;62.36
27643;BME280;15053;48.618;10.024;2023-08-20T20:28:45;94848.19;;;27.88;62.46
27643;BME280;15053;48.618;10.024;2023-08-20T20:31:12;94852.00;;;27.90;62.58
27643;BME280;15053;48.618;10.024;2023-08-20T20:33:38;94846.25;;;27.88;62.79
27643;BME280;15053;48.618;10.024;2023-08-20T20:36:05;94847.03;;;27.85;62.65
27643;BME280;15053;48.618;10.024;2023-08-20T20:38:35;94858.50;;;27.82;62.92
27643;BME280;15053;48.618;10.024;2023-08-20T20:41:01;94855.03;;;27.78;62.82
27643;BME280;15053;48.618;10.024;2023-08-20T20:43:28;94859.25;;;27.72;63.02
27643;BME280;15053;48.618;10.024;2023-08-20T20:45:55;94857.31;;;27.69;63.28
27643;BME280;15053;48.618;10.024;2023-08-20T20:48:23;94862.69;;;27.66;63.05
27643;BME280;15053;48.618;10.024;2023-08-20T20:50:49;94858.06;;;27.59;63.61
27643;BME280;15053;48.618;10.024;2023-08-20T20:53:16;94863.44;;;27.59;63.58
27643;BME280;15053;48.618;10.024;2023-08-20T20:55:43;94863.06;;;27.57;63.94
27643;BME280;15053;48.618;10.024;2023-08-20T20:58:09;94863.41;;;27.56;64.28
27643;BME280;15053;48.618;10.024;2023-08-20T21:00:36;94862.25;;;27.53;64.21
27643;BME280;15053;48.618;10.024;2023-08-20T21:03:03;94876.41;;;27.50;64.67
27643;BME280;15053;48.618;10.024;2023-08-20T21:05:30;94865.31;;;27.48;64.58
27643;BME280;15053;48.618;10.024;2023-08-20T21:07:56;94866.84;;;27.45;64.61
27643;BME280;15053;48.618;10.024;2023-08-20T21:10:23;94865.69;;;27.43;64.66
27643;BME280;15053;48.618;10.024;2023-08-20T21:12:49;94868.38;;;27.43;64.89
27643;BME280;15053;48.618;10.024;2023-08-20T21:15:16;94867.22;;;27.40;65.35
27643;BME280;15053;48.618;10.024;2023-08-20T21:17:42;94872.16;;;27.38;65.34
27643;BME280;15053;48.618;10.024;2023-08-20T21:20:09;94868.66;;;27.31;65.72
27643;BME280;15053;48.618;10.024;2023-08-20T21:22:37;94870.19;;;27.25;65.85
27643;BME280;15053;48.618;10.024;2023-08-20T21:25:04;94868.63;;;27.20;66.03
27643;BME280;15053;48.618;10.024;2023-08-20T21:27:31;94876.66;;;27.17;66.06
27643;BME280;15053;48.618;10.024;2023-08-20T21:29:57;94871.69;;;27.15;66.87
27643;BME280;15053;48.618;10.024;2023-08-20T21:32:24;94871.66;;;27.12;66.66
27643;BME280;15053;48.618;10.024;2023-08-20T21:34:50;94867.84;;;27.06;66.98
27643;BME280;15053;48.618;10.024;2023-08-20T21:37:17;94867.78;;;26.99;67.00
27643;BME280;15053;48.618;10.024;2023-08-20T21:39:43;94870.84;;;26.93;66.84
27643;BME280;15053;48.618;10.024;2023-08-20T21:42:10;94869.28;;;26.89;67.26
27643;BME280;15053;48.618;10.024;2023-08-20T21:44:37;94866.19;;;26.80;67.41